createdAt,value
2022-09-21T00:01:08.962Z,101806.53
2022-09-21T00:03:37.110Z,101811.91
2022-09-21T00:06:06.245Z,101818.16
2022-09-21T00:08:34.362Z,101817.28
2022-09-21T00:11:03.661Z,101821.81
2022-09-21T00:13:33.506Z,101822.66
2022-09-21T00:16:06.001Z,101811.91
2022-09-21T00:18:35.207Z,101819.00
2022-09-21T00:21:07.287Z,101822.66
2022-09-21T00:23:36.229Z,101815.47
2022-09-21T00:26:08.717Z,101822.66
2022-09-21T00:28:37.591Z,101822.66
2022-09-21T00:31:10.194Z,101816.56
2022-09-21T00:33:38.172Z,101817.28
2022-09-21T00:36:07.276Z,101821.81
2022-09-21T00:38:36.801Z,101821.81
2022-09-21T00:41:05.864Z,101769.63
2022-09-21T00:43:35.484Z,101790.66
2022-09-21T00:46:07.970Z,101820.22
2022-09-21T00:48:36.047Z,101820.34
2022-09-21T00:51:07.967Z,101817.53
2022-09-21T00:53:36.497Z,101820.22
2022-09-21T00:56:06.594Z,101817.53
2022-09-21T00:58:40.657Z,101822.06
2022-09-21T01:01:12.517Z,101816.69
2022-09-21T01:03:40.790Z,101821.09
2022-09-21T01:06:08.876Z,101821.94
2022-09-21T01:08:37.902Z,101815.59
2022-09-21T01:11:25.625Z,101817.28
2022-09-21T01:14:15.834Z,101790.16
2022-09-21T01:16:52.856Z,101817.78
2022-09-21T01:19:39.234Z,101825.47
2022-09-21T01:22:17.124Z,101824.63
2022-09-21T01:25:04.897Z,101821.19
2022-09-21T01:27:50.713Z,101822.91
2022-09-21T01:30:21.486Z,101827.31
2022-09-21T01:32:57.102Z,101830.00
2022-09-21T01:35:29.671Z,101830.00
2022-09-21T01:38:02.768Z,101831.97
2022-09-21T01:40:35.987Z,101826.59
2022-09-21T01:43:07.266Z,101839.03
2022-09-21T01:45:40.900Z,101830.13
2022-09-21T01:48:09.548Z,101830.25
2022-09-21T01:50:42.483Z,101831.97
2022-09-21T01:53:14.793Z,101830.25
2022-09-21T01:55:49.941Z,101835.63
2022-09-21T01:58:24.043Z,101830.25
2022-09-21T02:00:58.085Z,101828.53
2022-09-21T02:03:31.006Z,101824.88
2022-09-21T02:06:00.695Z,101819.75
2022-09-21T02:08:32.359Z,101828.53
2022-09-21T02:11:02.726Z,101826.81
2022-09-21T02:13:36.746Z,101824.88
2022-09-21T02:16:22.306Z,101831.97
2022-09-21T02:19:00.826Z,101836.47
2022-09-21T02:21:34.378Z,101831.09
2022-09-21T02:24:09.935Z,101827.44
2022-09-21T02:26:46.153Z,101823.91
2022-09-21T02:29:21.852Z,101821.19
2022-09-21T02:31:59.766Z,101831.97
2022-09-21T02:34:35.498Z,101826.59
2022-09-21T02:37:10.509Z,101829.28
2022-09-21T02:39:46.046Z,101831.97
2022-09-21T02:42:20.596Z,101831.97
2022-09-21T02:44:57.061Z,101823.16
2022-09-21T02:47:31.890Z,101813.13
2022-09-21T02:50:06.470Z,101826.81
2022-09-21T02:52:37.193Z,101832.94
2022-09-21T02:55:06.646Z,101835.63
2022-09-21T02:57:34.728Z,101833.91
2022-09-21T03:00:03.630Z,101835.63
2022-09-21T03:02:40.079Z,101835.00
2022-09-21T03:05:09.645Z,101841.00
2022-09-21T03:07:37.802Z,101835.63
2022-09-21T03:10:08.286Z,101803.09
2022-09-21T03:12:36.843Z,101841.00
2022-09-21T03:15:05.735Z,101844.66
2022-09-21T03:17:34.459Z,101841.72
2022-09-21T03:20:04.362Z,101839.03
2022-09-21T03:22:32.457Z,101832.09
2022-09-21T03:25:00.575Z,101839.91
2022-09-21T03:27:28.663Z,101851.53
2022-09-21T03:30:01.309Z,101847.09
2022-09-21T03:32:30.329Z,101844.41
2022-09-21T03:34:58.401Z,101842.72
2022-09-21T03:37:27.861Z,101853.47
2022-09-21T03:39:56.013Z,101848.09
2022-09-21T03:42:24.163Z,101842.84
2022-09-21T03:44:52.277Z,101846.41
2022-09-21T03:47:20.789Z,101841.25
2022-09-21T03:49:48.881Z,101851.78
2022-09-21T03:52:17.006Z,101776.44
2022-09-21T03:54:47.310Z,101844.66
2022-09-21T03:57:15.442Z,101854.47
2022-09-21T03:59:43.679Z,101857.88
2022-09-21T04:02:11.833Z,101860.56
2022-09-21T04:04:39.954Z,101858.84
2022-09-21T04:07:08.028Z,101848.09
2022-09-21T04:09:36.133Z,101853.47
2022-09-21T04:12:05.929Z,101853.47
2022-09-21T04:14:34.255Z,101849.78
2022-09-21T04:17:02.354Z,101849.78
2022-09-21T04:19:30.448Z,101849.78
2022-09-21T04:21:58.695Z,101856.91
2022-09-21T04:24:27.291Z,101846.16
2022-09-21T04:26:55.476Z,101851.53
2022-09-21T04:29:24.990Z,101848.84
2022-09-21T04:31:53.197Z,101851.53
2022-09-21T04:34:21.426Z,101848.84
2022-09-21T04:36:49.516Z,101849.78
2022-09-21T04:39:17.627Z,101850.66
2022-09-21T04:41:46.012Z,101849.78
2022-09-21T04:44:14.120Z,101855.19
2022-09-21T04:46:43.960Z,101855.19
2022-09-21T04:49:12.041Z,101851.78
2022-09-21T04:51:40.190Z,101850.91
2022-09-21T04:54:08.286Z,101848.59
2022-09-21T04:56:36.575Z,101779.13
2022-09-21T04:59:05.219Z,101853.72
2022-09-21T05:01:33.537Z,101853.72
2022-09-21T05:04:03.556Z,101855.41
2022-09-21T05:06:32.992Z,101781.56
2022-09-21T05:09:18.827Z,101851.16
2022-09-21T05:11:48.217Z,101828.53
2022-09-21T05:14:16.509Z,101859.09
2022-09-21T05:16:44.751Z,101851.03
2022-09-21T05:19:14.263Z,101859.09
2022-09-21T05:21:42.367Z,101852.84
2022-09-21T05:24:10.893Z,101857.41
2022-09-21T05:26:39.287Z,101875.22
2022-09-21T05:29:08.046Z,101859.09
2022-09-21T05:31:44.592Z,101862.66
2022-09-21T05:34:40.257Z,101875.97
2022-09-21T05:37:15.237Z,101869.84
2022-09-21T05:39:43.970Z,101877.06
2022-09-21T05:42:12.683Z,101873.53
2022-09-21T05:44:41.371Z,101864.72
2022-09-21T05:47:24.470Z,101873.53
2022-09-21T05:50:05.994Z,101878.16
2022-09-21T05:52:46.359Z,101880.84
2022-09-21T05:55:28.122Z,101872.03
2022-09-21T05:58:05.618Z,101874.84
2022-09-21T06:00:43.423Z,101879.16
2022-09-21T06:03:29.723Z,101879.16
2022-09-21T06:05:59.739Z,101879.97
2022-09-21T06:08:27.989Z,101886.22
2022-09-21T06:10:57.428Z,101884.53
2022-09-21T06:13:26.628Z,101861.06
2022-09-21T06:15:54.906Z,101853.47
2022-09-21T06:18:23.000Z,101877.41
2022-09-21T06:20:51.120Z,101884.28
2022-09-21T06:23:20.689Z,101888.78
2022-09-21T06:25:57.578Z,101879.16
2022-09-21T06:28:26.919Z,101872.03
2022-09-21T06:30:56.609Z,101885.25
2022-09-21T06:33:25.374Z,101880.84
2022-09-21T06:35:54.902Z,101884.53
2022-09-21T06:38:25.263Z,101886.22
2022-09-21T06:40:54.406Z,101882.53
2022-09-21T06:43:22.790Z,101884.41
2022-09-21T06:45:55.512Z,101885.25
2022-09-21T06:48:24.233Z,101884.53
2022-09-21T06:50:52.387Z,101889.66
2022-09-21T06:53:20.745Z,101891.34
2022-09-21T06:55:50.253Z,101891.34
2022-09-21T06:58:18.409Z,101899.44
2022-09-21T07:00:46.577Z,101902.97
2022-09-21T07:03:14.828Z,101902.00
2022-09-21T07:05:46.471Z,101880.34
2022-09-21T07:11:04.184Z,101891.34
2022-09-21T07:13:32.282Z,101896.75
2022-09-21T07:16:04.183Z,101893.94
2022-09-21T07:18:42.572Z,101895.03
2022-09-21T07:21:14.614Z,101897.59
2022-09-21T07:23:42.876Z,101900.19
2022-09-21T07:26:13.741Z,101897.72
2022-09-21T07:28:42.669Z,101900.41
2022-09-21T07:31:14.014Z,101901.38
2022-09-21T07:33:42.895Z,101896.75
2022-09-21T07:36:13.053Z,101895.88
2022-09-21T07:38:43.040Z,101903.81
2022-09-21T07:41:14.094Z,101902.13
2022-09-21T07:43:42.586Z,101902.13
2022-09-21T07:46:12.667Z,101900.41
2022-09-21T07:48:41.156Z,101907.50
2022-09-21T07:51:11.247Z,101907.50
2022-09-21T07:53:41.378Z,101907.50
2022-09-21T07:56:10.762Z,101904.81
2022-09-21T07:58:58.061Z,101905.66
2022-09-21T08:01:27.261Z,101916.31
2022-09-21T08:03:56.968Z,101893.53
2022-09-21T08:06:27.018Z,101905.56
2022-09-21T08:08:58.011Z,101907.25
2022-09-21T08:11:28.039Z,101906.38
2022-09-21T08:13:59.517Z,101902.75
2022-09-21T08:16:29.163Z,101907.25
2022-09-21T08:18:58.910Z,101907.25
2022-09-21T08:21:27.087Z,101891.59
2022-09-21T08:23:55.233Z,101895.63
2022-09-21T08:26:24.733Z,101899.31
2022-09-21T08:28:56.608Z,101900.19
2022-09-21T08:31:26.601Z,101864.47
2022-09-21T08:33:57.730Z,101905.56
2022-09-21T08:36:26.132Z,101900.19
2022-09-21T08:38:55.218Z,101907.38
2022-09-21T08:41:26.158Z,101905.56
2022-09-21T08:43:59.372Z,101912.88
2022-09-21T08:46:32.881Z,101907.38
2022-09-21T08:49:07.172Z,101904.69
2022-09-21T08:51:38.588Z,101877.66
2022-09-21T08:54:16.380Z,101905.56
2022-09-21T08:57:04.127Z,101907.38
2022-09-21T08:59:32.726Z,101914.56
2022-09-21T09:02:14.520Z,101897.59
2022-09-21T09:04:53.242Z,101902.88
2022-09-21T09:07:56.000Z,101910.94
2022-09-21T09:10:37.250Z,101913.63
2022-09-21T09:13:24.207Z,101907.50
2022-09-21T09:16:02.346Z,101916.31
2022-09-21T09:18:43.722Z,101910.94
2022-09-21T09:21:22.666Z,101909.06
2022-09-21T09:24:00.519Z,101903.81
2022-09-21T09:26:35.990Z,101910.06
2022-09-21T09:29:12.964Z,101909.44
2022-09-21T09:31:42.089Z,101912.75
2022-09-21T09:34:18.324Z,101918.13
2022-09-21T09:36:59.179Z,101909.31
2022-09-21T09:39:30.895Z,101916.31
2022-09-21T09:42:41.520Z,101921.69
2022-09-21T09:45:31.513Z,101916.31
2022-09-21T09:48:20.385Z,101916.31
2022-09-21T09:50:50.039Z,101918.00
2022-09-21T09:53:21.633Z,101926.06
2022-09-21T09:55:52.861Z,101922.53
2022-09-21T09:58:22.383Z,101916.44
2022-09-21T10:00:54.191Z,101928.78
2022-09-21T10:03:23.615Z,101913.75
2022-09-21T10:05:53.597Z,101915.19
2022-09-21T10:08:46.522Z,101919.72
2022-09-21T10:11:16.566Z,101925.09
2022-09-21T10:13:46.720Z,101921.44
2022-09-21T10:16:19.977Z,101915.19
2022-09-21T10:18:50.158Z,101923.16
2022-09-21T10:21:22.925Z,101915.09
2022-09-21T10:23:53.783Z,101886.09
2022-09-21T10:26:23.048Z,101917.78
2022-09-21T10:28:59.993Z,101920.47
2022-09-21T10:31:30.044Z,101912.41
2022-09-21T10:34:09.046Z,101912.41
2022-09-21T10:36:40.037Z,101907.00
2022-09-21T10:39:25.393Z,101922.28
2022-09-21T10:42:00.203Z,101911.53
2022-09-21T10:44:31.183Z,101909.81
2022-09-21T10:47:19.714Z,101906.25
2022-09-21T10:49:51.412Z,101903.56
2022-09-21T10:52:24.017Z,101914.34
2022-09-21T10:54:56.095Z,101903.56
2022-09-21T10:57:26.411Z,101914.34
2022-09-21T10:59:54.593Z,101910.69
2022-09-21T11:02:36.751Z,101910.69
2022-09-21T11:05:12.495Z,101901.00
2022-09-21T11:07:48.058Z,101910.69
2022-09-21T11:10:22.490Z,101910.69
2022-09-21T11:13:01.009Z,101917.78
2022-09-21T11:15:47.029Z,101914.09
2022-09-21T11:18:23.244Z,101917.78
2022-09-21T11:20:56.499Z,101923.16
2022-09-21T11:23:43.789Z,101915.09
2022-09-21T11:26:19.379Z,101917.78
2022-09-21T11:28:52.448Z,101918.75
2022-09-21T11:31:38.312Z,101917.78
2022-09-21T11:34:54.845Z,101923.16
2022-09-21T11:37:36.595Z,101898.44
2022-09-21T11:40:26.281Z,101881.19
2022-09-21T11:43:08.572Z,101925.09
2022-09-21T11:45:52.748Z,101917.78
2022-09-21T11:48:30.559Z,101916.06
2022-09-21T11:51:08.860Z,101921.44
2022-09-21T11:53:49.957Z,101924.97
2022-09-21T11:56:35.414Z,101932.19
2022-09-21T11:59:21.390Z,101926.81
2022-09-21T12:02:19.667Z,101921.44
2022-09-21T12:04:55.985Z,101918.00
2022-09-21T12:07:44.028Z,101924.13
2022-09-21T12:10:36.801Z,101916.06
2022-09-21T12:13:11.998Z,101921.44
2022-09-21T12:15:44.879Z,101916.06
2022-09-21T12:18:18.024Z,101921.44
2022-09-21T12:20:52.496Z,101916.06
2022-09-21T12:23:24.584Z,101910.69
2022-09-21T12:25:57.760Z,101921.44
2022-09-21T12:28:31.960Z,101923.16
2022-09-21T12:31:04.502Z,101912.41
2022-09-21T12:33:40.483Z,101912.41
2022-09-21T12:36:14.809Z,101900.88
2022-09-21T12:38:48.828Z,101907.00
2022-09-21T12:41:24.204Z,101907.00
2022-09-21T12:44:01.916Z,101912.41
2022-09-21T12:46:35.080Z,101907.00
2022-09-21T12:49:14.277Z,101907.88
2022-09-21T12:51:45.942Z,101905.19
2022-09-21T12:54:27.253Z,101900.66
2022-09-21T12:57:17.447Z,101907.00
2022-09-21T13:00:04.273Z,101898.94
2022-09-21T13:02:37.013Z,101901.63
2022-09-21T13:05:13.086Z,101901.63
2022-09-21T13:08:00.862Z,101905.31
2022-09-21T13:10:58.740Z,101894.56
2022-09-21T13:13:31.207Z,101890.75
2022-09-21T13:16:01.671Z,101903.56
2022-09-21T13:18:36.389Z,101903.56
2022-09-21T13:21:17.764Z,101902.63
2022-09-21T13:23:53.810Z,101900.75
2022-09-21T13:26:36.017Z,101901.63
2022-09-21T13:29:07.989Z,101903.34
2022-09-21T13:31:57.822Z,101904.22
2022-09-21T13:34:32.406Z,101888.16
2022-09-21T13:37:32.910Z,101896.25
2022-09-21T13:40:40.449Z,101897.25
2022-09-21T13:43:58.560Z,101912.63
2022-09-21T13:46:53.430Z,101905.31
2022-09-21T13:49:46.155Z,101908.94
2022-09-21T13:52:37.412Z,101900.19
2022-09-21T13:55:07.969Z,101888.78
2022-09-21T13:57:40.800Z,101903.56
2022-09-21T14:00:35.614Z,101892.81
2022-09-21T14:03:07.658Z,101865.44
2022-09-21T14:05:42.823Z,101894.56
2022-09-21T14:08:23.338Z,101887.44
2022-09-21T14:10:54.568Z,101890.88
2022-09-21T14:13:32.109Z,101884.50
2022-09-21T14:16:45.171Z,101882.81
2022-09-21T14:20:06.999Z,101873.88
2022-09-21T14:22:45.774Z,101877.56
2022-09-21T14:25:32.337Z,101874.00
2022-09-21T14:28:04.546Z,101865.94
2022-09-21T14:30:38.107Z,101870.34
2022-09-21T14:33:21.209Z,101862.28
2022-09-21T14:35:52.617Z,101861.28
2022-09-21T14:38:25.892Z,101864.00
2022-09-21T14:40:58.815Z,101853.22
2022-09-21T14:43:33.926Z,101853.22
2022-09-21T14:46:29.562Z,101854.94
2022-09-21T14:49:16.107Z,101845.03
2022-09-21T14:52:04.411Z,101844.19
2022-09-21T14:54:49.572Z,101851.41
2022-09-21T14:57:35.301Z,101842.47
2022-09-21T15:00:24.634Z,101840.78
2022-09-21T15:03:09.426Z,101840.78
2022-09-21T15:05:39.510Z,101833.66
2022-09-21T15:08:46.422Z,101835.41
2022-09-21T15:11:25.561Z,101843.47
2022-09-21T15:14:11.258Z,101846.16
2022-09-21T15:16:41.951Z,101835.41
2022-09-21T15:19:26.272Z,101835.41
2022-09-21T15:21:55.467Z,101832.59
2022-09-21T15:24:28.560Z,101793.34
2022-09-21T15:27:10.512Z,101835.16
2022-09-21T15:29:40.672Z,101831.72
2022-09-21T15:32:09.020Z,101830.00
2022-09-21T15:34:38.541Z,101827.22
2022-09-21T15:37:17.133Z,101822.66
2022-09-21T15:39:45.408Z,101822.66
2022-09-21T15:42:23.065Z,101825.22
2022-09-21T15:44:55.419Z,101826.09
2022-09-21T15:47:26.172Z,101827.78
2022-09-21T15:49:56.210Z,101833.16
2022-09-21T15:52:31.620Z,101826.09
2022-09-21T15:55:02.932Z,101837.59
2022-09-21T15:57:39.158Z,101834.03
2022-09-21T16:00:20.640Z,101836.59
2022-09-21T16:03:04.412Z,101826.09
2022-09-21T16:05:35.248Z,101830.47
2022-09-21T16:08:08.293Z,101833.16
2022-09-21T16:10:40.721Z,101807.50
2022-09-21T16:13:36.569Z,101842.22
2022-09-21T16:16:07.262Z,101836.84
2022-09-21T16:18:44.469Z,101844.19
2022-09-21T16:21:21.154Z,101838.78
2022-09-21T16:23:51.489Z,101831.72
2022-09-21T16:26:22.738Z,101836.22
2022-09-21T16:28:58.475Z,101831.72
2022-09-21T16:31:32.115Z,101828.03
2022-09-21T16:34:05.477Z,101833.41
2022-09-21T16:36:44.682Z,101833.41
2022-09-21T16:39:15.796Z,101828.91
2022-09-21T16:41:58.367Z,101806.28
2022-09-21T16:44:31.735Z,101831.72
2022-09-21T16:47:02.226Z,101830.72
2022-09-21T16:49:32.792Z,101844.19
2022-09-21T16:52:01.595Z,101838.78
2022-09-21T16:54:30.304Z,101814.88
2022-09-21T16:57:01.120Z,101849.56
2022-09-21T16:59:33.232Z,101838.78
2022-09-21T17:02:04.317Z,101838.78
2022-09-21T17:04:33.986Z,101838.78
2022-09-21T17:07:03.598Z,101826.81
2022-09-21T17:09:38.048Z,101838.78
2022-09-21T17:12:08.754Z,101842.47
2022-09-21T17:14:41.919Z,101842.47
2022-09-21T17:17:17.646Z,101855.91
2022-09-21T17:19:46.657Z,101842.47
2022-09-21T17:22:17.507Z,101830.75
2022-09-21T17:24:51.260Z,101837.09
2022-09-21T17:27:21.751Z,101831.72
2022-09-21T17:29:53.970Z,101847.84
2022-09-21T17:32:23.860Z,101842.47
2022-09-21T17:35:01.077Z,101837.97
2022-09-21T17:37:29.552Z,101840.53
2022-09-21T17:39:57.616Z,101845.91
2022-09-21T17:42:26.498Z,101845.91
2022-09-21T17:45:14.797Z,101846.75
2022-09-21T17:47:43.507Z,101851.28
2022-09-21T17:50:24.037Z,101845.91
2022-09-21T17:53:10.256Z,101840.53
2022-09-21T17:55:39.755Z,101824.88
2022-09-21T17:58:25.304Z,101840.53
2022-09-21T18:01:01.897Z,101845.03
2022-09-21T18:03:32.215Z,101830.72
2022-09-21T18:06:01.075Z,101838.78
2022-09-21T18:08:30.482Z,101835.28
2022-09-21T18:11:11.869Z,101832.59
2022-09-21T18:13:48.843Z,101829.16
2022-09-21T18:16:36.443Z,101837.09
2022-09-21T18:19:29.332Z,101835.41
2022-09-21T18:22:04.911Z,101839.03
2022-09-21T18:24:33.499Z,101850.53
2022-09-21T18:27:02.180Z,101842.47
2022-09-21T18:29:41.206Z,101842.47
2022-09-21T18:32:34.725Z,101837.09
2022-09-21T18:35:25.327Z,101842.47
2022-09-21T18:38:05.754Z,101763.13
2022-09-21T18:40:41.810Z,101847.84
2022-09-21T18:43:27.158Z,101840.78
2022-09-21T18:46:02.086Z,101847.84
2022-09-21T18:48:41.979Z,101847.84
2022-09-21T18:51:18.159Z,101853.22
2022-09-21T18:53:49.299Z,101844.41
2022-09-21T18:56:19.281Z,101844.19
2022-09-21T18:58:49.762Z,101849.56
2022-09-21T19:01:19.964Z,101849.56
2022-09-21T19:03:50.423Z,101844.19
2022-09-21T19:06:32.654Z,101838.78
2022-09-21T19:09:06.542Z,101844.19
2022-09-21T19:11:39.141Z,101844.19
2022-09-21T19:14:16.763Z,101849.56
2022-09-21T19:17:04.770Z,101840.78
2022-09-21T19:19:41.538Z,101840.78
2022-09-21T19:22:16.587Z,101841.00
2022-09-21T19:24:57.097Z,101846.97
2022-09-21T19:27:35.508Z,101833.91
2022-09-21T19:30:10.084Z,101852.38
2022-09-21T19:32:44.996Z,101846.16
2022-09-21T19:35:25.811Z,101849.78
2022-09-21T19:37:55.874Z,101816.31
2022-09-21T19:40:25.774Z,101858.59
2022-09-21T19:43:13.413Z,101858.59
2022-09-21T19:45:54.338Z,101853.22
2022-09-21T19:48:27.856Z,101856.91
2022-09-21T19:50:59.791Z,101849.78
2022-09-21T19:53:46.007Z,101842.47
2022-09-21T19:56:33.388Z,101848.09
2022-09-21T19:59:19.509Z,101851.53
2022-09-21T20:01:55.078Z,101856.03
2022-09-21T20:04:28.203Z,101846.16
2022-09-21T20:07:03.915Z,101849.78
2022-09-21T20:09:39.428Z,101858.59
2022-09-21T20:12:18.658Z,101852.38
2022-09-21T20:14:51.685Z,101855.19
2022-09-21T20:17:24.396Z,101848.84
2022-09-21T20:19:57.104Z,101849.78
2022-09-21T20:22:35.860Z,101856.03
2022-09-21T20:25:13.006Z,101848.97
2022-09-21T20:27:44.985Z,101836.34
2022-09-21T20:30:15.125Z,101804.84
2022-09-21T20:32:45.327Z,101849.78
2022-09-21T20:35:17.121Z,101835.53
2022-09-21T20:37:47.152Z,101823.06
2022-09-21T20:40:16.294Z,101837.22
2022-09-21T20:42:44.685Z,101839.91
2022-09-21T20:45:14.064Z,101847.84
2022-09-21T20:47:42.396Z,101846.16
2022-09-21T20:50:13.548Z,101842.47
2022-09-21T20:52:42.524Z,101837.09
2022-09-21T20:55:14.233Z,101847.84
2022-09-21T20:57:42.357Z,101845.91
2022-09-21T21:00:12.959Z,101844.19
2022-09-21T21:02:41.806Z,101843.34
2022-09-21T21:05:11.646Z,101838.09
2022-09-21T21:07:42.552Z,101839.78
2022-09-21T21:10:14.290Z,101833.41
2022-09-21T21:12:42.786Z,101829.91
2022-09-21T21:15:12.647Z,101829.03
2022-09-21T21:17:42.191Z,101826.34
2022-09-21T21:20:11.314Z,101821.31
2022-09-21T21:22:39.409Z,101820.97
2022-09-21T21:25:08.001Z,101824.63
2022-09-21T21:27:37.633Z,101807.25
2022-09-21T21:30:07.081Z,101820.97
2022-09-21T21:32:35.736Z,101792.97
2022-09-21T21:35:04.087Z,101824.63
2022-09-21T21:37:32.304Z,101824.63
2022-09-21T21:40:03.439Z,101740.78
2022-09-21T21:42:31.790Z,101813.88
2022-09-21T21:45:01.300Z,101814.00
2022-09-21T21:47:44.609Z,101820.97
2022-09-21T21:50:12.862Z,101819.50
2022-09-21T21:52:40.983Z,101819.25
2022-09-21T21:55:10.302Z,101821.81
2022-09-21T21:57:38.453Z,101826.34
2022-09-21T22:00:10.604Z,101810.69
2022-09-21T22:02:38.758Z,101812.88
2022-09-21T22:05:08.071Z,101820.09
2022-09-21T22:07:36.150Z,101816.56
2022-09-21T22:10:08.508Z,101806.78
2022-09-21T22:12:36.701Z,101815.59
2022-09-21T22:15:04.961Z,101804.81
2022-09-21T22:17:34.554Z,101808.50
2022-09-21T22:20:02.954Z,101805.81
2022-09-21T22:22:31.049Z,101806.53
2022-09-21T22:24:59.167Z,101805.69
2022-09-21T22:27:27.265Z,101814.59
2022-09-21T22:29:55.349Z,101804.81
2022-09-21T22:32:23.486Z,101808.50
2022-09-21T22:34:52.926Z,101805.06
2022-09-21T22:37:21.010Z,101797.75
2022-09-21T22:39:49.135Z,101796.00
2022-09-21T22:42:17.357Z,101792.38
2022-09-21T22:44:45.414Z,101801.41
2022-09-21T22:47:13.517Z,101795.19
2022-09-21T22:49:41.584Z,101800.44
2022-09-21T22:52:11.151Z,101797.75
2022-09-21T22:54:39.235Z,101794.06
2022-09-21T22:57:07.367Z,101797.75
2022-09-21T22:59:35.488Z,101803.13
2022-09-21T23:02:03.599Z,101803.13
2022-09-21T23:04:31.802Z,101796.88
2022-09-21T23:06:59.909Z,101792.38
2022-09-21T23:09:29.420Z,101797.75
2022-09-21T23:11:57.559Z,101794.06
2022-09-21T23:14:25.727Z,101798.56
2022-09-21T23:16:54.310Z,101789.56
2022-09-21T23:19:22.457Z,101794.94
2022-09-21T23:21:51.519Z,101801.16
2022-09-21T23:24:20.223Z,101791.38
2022-09-21T23:26:51.700Z,101791.38
2022-09-21T23:29:20.068Z,101792.38
2022-09-21T23:31:48.453Z,101787.00
2022-09-21T23:34:17.671Z,101779.88
2022-09-21T23:36:46.241Z,101787.00
2022-09-21T23:39:15.775Z,101779.03
2022-09-21T23:41:44.776Z,101775.50
2022-09-21T23:44:14.398Z,101776.47
2022-09-21T23:46:43.176Z,101776.47
2022-09-21T23:49:11.764Z,101773.78
2022-09-21T23:51:40.433Z,101758.28
2022-09-21T23:54:10.165Z,101776.47
2022-09-21T23:56:38.625Z,101781.84
2022-09-21T23:59:07.230Z,101778.19
